sensor_id;sensor_type;location;lat;lon;timestamp;P1;durP1;ratioP1;P2;durP2;ratioP2
6255;SDS011;3161;48.794;9.784;2022-12-07T00:01:33;10.93;;;6.57;;
6255;SDS011;3161;48.794;9.784;2022-12-07T00:04:04;11.07;;;6.07;;
6255;SDS011;3161;48.794;9.784;2022-12-07T00:06:37;9.63;;;5.33;;
6255;SDS011;3161;48.794;9.784;2022-12-07T00:09:12;10.93;;;6.10;;
6255;SDS011;3161;48.794;9.784;2022-12-07T00:11:41;11.43;;;5.67;;
6255;SDS011;3161;48.794;9.784;2022-12-07T00:14:11;8.27;;;6.20;;
6255;SDS011;3161;48.794;9.784;2022-12-07T00:16:40;5.43;;;4.33;;
6255;SDS011;3161;48.794;9.784;2022-12-07T00:19:10;5.40;;;4.53;;
6255;SDS011;3161;48.794;9.784;2022-12-07T00:21:39;4.83;;;4.10;;
6255;SDS011;3161;48.794;9.784;2022-12-07T00:24:06;4.20;;;3.80;;
6255;SDS011;3161;48.794;9.784;2022-12-07T00:26:35;5.53;;;4.30;;
6255;SDS011;3161;48.794;9.784;2022-12-07T00:29:05;5.90;;;4.37;;
6255;SDS011;3161;48.794;9.784;2022-12-07T00:31:36;6.90;;;4.63;;
6255;SDS011;3161;48.794;9.784;2022-12-07T00:34:07;5.80;;;3.87;;
6255;SDS011;3161;48.794;9.784;2022-12-07T00:36:40;5.67;;;4.10;;
6255;SDS011;3161;48.794;9.784;2022-12-07T00:39:08;5.40;;;4.10;;
6255;SDS011;3161;48.794;9.784;2022-12-07T00:41:36;5.23;;;4.20;;
6255;SDS011;3161;48.794;9.784;2022-12-07T00:44:03;5.27;;;4.03;;
6255;SDS011;3161;48.794;9.784;2022-12-07T00:46:31;4.53;;;4.13;;
6255;SDS011;3161;48.794;9.784;2022-12-07T00:48:58;4.40;;;4.00;;
6255;SDS011;3161;48.794;9.784;2022-12-07T00:51:26;5.93;;;4.50;;
6255;SDS011;3161;48.794;9.784;2022-12-07T00:53:53;4.60;;;4.10;;
6255;SDS011;3161;48.794;9.784;2022-12-07T00:56:22;4.97;;;4.47;;
6255;SDS011;3161;48.794;9.784;2022-12-07T00:58:56;5.17;;;4.73;;
6255;SDS011;3161;48.794;9.784;2022-12-07T01:01:25;4.37;;;3.97;;
6255;SDS011;3161;48.794;9.784;2022-12-07T01:03:54;8.57;;;4.10;;
6255;SDS011;3161;48.794;9.784;2022-12-07T01:06:23;4.77;;;4.03;;
6255;SDS011;3161;48.794;9.784;2022-12-07T01:08:51;4.30;;;3.73;;
6255;SDS011;3161;48.794;9.784;2022-12-07T01:11:20;6.30;;;3.77;;
6255;SDS011;3161;48.794;9.784;2022-12-07T01:13:55;4.00;;;3.63;;
6255;SDS011;3161;48.794;9.784;2022-12-07T01:16:21;10.03;;;4.13;;
6255;SDS011;3161;48.794;9.784;2022-12-07T01:18:51;4.50;;;4.10;;
6255;SDS011;3161;48.794;9.784;2022-12-07T01:21:20;5.40;;;4.40;;
6255;SDS011;3161;48.794;9.784;2022-12-07T01:23:50;4.83;;;4.43;;
6255;SDS011;3161;48.794;9.784;2022-12-07T01:26:20;5.47;;;4.17;;
6255;SDS011;3161;48.794;9.784;2022-12-07T01:28:49;10.97;;;4.73;;
6255;SDS011;3161;48.794;9.784;2022-12-07T01:31:20;5.53;;;4.60;;
6255;SDS011;3161;48.794;9.784;2022-12-07T01:33:56;6.87;;;5.10;;
6255;SDS011;3161;48.794;9.784;2022-12-07T01:36:23;6.30;;;4.83;;
6255;SDS011;3161;48.794;9.784;2022-12-07T01:38:59;6.87;;;5.40;;
6255;SDS011;3161;48.794;9.784;2022-12-07T01:41:30;7.27;;;5.03;;
6255;SDS011;3161;48.794;9.784;2022-12-07T01:44:13;6.67;;;5.53;;
6255;SDS011;3161;48.794;9.784;2022-12-07T01:46:55;7.97;;;6.10;;
6255;SDS011;3161;48.794;9.784;2022-12-07T01:52:07;10.53;;;6.20;;
6255;SDS011;3161;48.794;9.784;2022-12-07T01:54:43;6.83;;;5.73;;
6255;SDS011;3161;48.794;9.784;2022-12-07T01:57:13;7.53;;;6.00;;
6255;SDS011;3161;48.794;9.784;2022-12-07T01:59:43;7.93;;;6.10;;
6255;SDS011;3161;48.794;9.784;2022-12-07T02:02:17;8.00;;;5.93;;
6255;SDS011;3161;48.794;9.784;2022-12-07T02:04:47;7.13;;;6.20;;
6255;SDS011;3161;48.794;9.784;2022-12-07T02:07:15;7.93;;;6.13;;
6255;SDS011;3161;48.794;9.784;2022-12-07T02:09:43;8.03;;;6.13;;
6255;SDS011;3161;48.794;9.784;2022-12-07T02:12:11;5.77;;;5.17;;
6255;SDS011;3161;48.794;9.784;2022-12-07T02:14:38;6.33;;;5.10;;
6255;SDS011;3161;48.794;9.784;2022-12-07T02:20:09;8.73;;;6.17;;
6255;SDS011;3161;48.794;9.784;2022-12-07T02:22:51;9.13;;;5.93;;
6255;SDS011;3161;48.794;9.784;2022-12-07T02:28:27;8.40;;;6.37;;
6255;SDS011;3161;48.794;9.784;2022-12-07T02:31:08;8.87;;;7.03;;
6255;SDS011;3161;48.794;9.784;2022-12-07T02:33:37;8.17;;;6.77;;
6255;SDS011;3161;48.794;9.784;2022-12-07T02:36:14;8.27;;;6.63;;
6255;SDS011;3161;48.794;9.784;2022-12-07T02:38:51;8.50;;;6.77;;
6255;SDS011;3161;48.794;9.784;2022-12-07T02:41:21;8.73;;;7.00;;
6255;SDS011;3161;48.794;9.784;2022-12-07T02:43:53;8.07;;;6.57;;
6255;SDS011;3161;48.794;9.784;2022-12-07T02:46:24;8.60;;;7.23;;
6255;SDS011;3161;48.794;9.784;2022-12-07T02:48:54;9.93;;;6.97;;
6255;SDS011;3161;48.794;9.784;2022-12-07T02:51:24;8.97;;;7.33;;
6255;SDS011;3161;48.794;9.784;2022-12-07T02:53:52;8.43;;;7.10;;
6255;SDS011;3161;48.794;9.784;2022-12-07T03:11:20;10.17;;;7.53;;
6255;SDS011;3161;48.794;9.784;2022-12-07T03:13:22;8.73;;;6.67;;
6255;SDS011;3161;48.794;9.784;2022-12-07T03:18:35;8.47;;;7.10;;
6255;SDS011;3161;48.794;9.784;2022-12-07T03:21:05;10.70;;;7.50;;
6255;SDS011;3161;48.794;9.784;2022-12-07T03:23:34;8.60;;;6.97;;
6255;SDS011;3161;48.794;9.784;2022-12-07T03:26:04;10.93;;;8.07;;
6255;SDS011;3161;48.794;9.784;2022-12-07T03:28:34;13.60;;;8.17;;
6255;SDS011;3161;48.794;9.784;2022-12-07T03:31:10;14.03;;;8.03;;
6255;SDS011;3161;48.794;9.784;2022-12-07T03:33:42;11.37;;;7.57;;
6255;SDS011;3161;48.794;9.784;2022-12-07T03:41:55;14.27;;;8.63;;
6255;SDS011;3161;48.794;9.784;2022-12-07T03:44:26;10.53;;;7.37;;
6255;SDS011;3161;48.794;9.784;2022-12-07T03:47:01;10.43;;;8.17;;
6255;SDS011;3161;48.794;9.784;2022-12-07T03:49:37;13.07;;;8.10;;
6255;SDS011;3161;48.794;9.784;2022-12-07T03:57:22;10.33;;;7.47;;
6255;SDS011;3161;48.794;9.784;2022-12-07T03:59:53;11.07;;;8.07;;
6255;SDS011;3161;48.794;9.784;2022-12-07T04:02:23;9.87;;;7.07;;
6255;SDS011;3161;48.794;9.784;2022-12-07T04:04:52;12.10;;;8.47;;
6255;SDS011;3161;48.794;9.784;2022-12-07T04:07:21;11.80;;;7.60;;
6255;SDS011;3161;48.794;9.784;2022-12-07T04:09:48;15.70;;;9.70;;
6255;SDS011;3161;48.794;9.784;2022-12-07T04:12:16;13.40;;;9.63;;
6255;SDS011;3161;48.794;9.784;2022-12-07T04:14:44;13.07;;;9.77;;
6255;SDS011;3161;48.794;9.784;2022-12-07T04:17:11;16.00;;;10.77;;
6255;SDS011;3161;48.794;9.784;2022-12-07T04:19:39;13.97;;;9.70;;
6255;SDS011;3161;48.794;9.784;2022-12-07T04:22:06;19.70;;;9.50;;
6255;SDS011;3161;48.794;9.784;2022-12-07T04:24:34;13.13;;;8.07;;
6255;SDS011;3161;48.794;9.784;2022-12-07T04:27:02;11.27;;;8.50;;
6255;SDS011;3161;48.794;9.784;2022-12-07T04:29:29;12.70;;;8.77;;
6255;SDS011;3161;48.794;9.784;2022-12-07T04:31:57;10.27;;;8.00;;
6255;SDS011;3161;48.794;9.784;2022-12-07T04:34:25;12.30;;;8.77;;
6255;SDS011;3161;48.794;9.784;2022-12-07T04:36:52;10.90;;;8.00;;
6255;SDS011;3161;48.794;9.784;2022-12-07T04:39:24;11.50;;;8.73;;
6255;SDS011;3161;48.794;9.784;2022-12-07T04:41:54;14.37;;;8.90;;
6255;SDS011;3161;48.794;9.784;2022-12-07T04:44:23;12.53;;;8.33;;
6255;SDS011;3161;48.794;9.784;2022-12-07T04:46:52;11.40;;;8.60;;
6255;SDS011;3161;48.794;9.784;2022-12-07T04:49:19;13.07;;;8.87;;
6255;SDS011;3161;48.794;9.784;2022-12-07T04:51:47;15.10;;;9.07;;
6255;SDS011;3161;48.794;9.784;2022-12-07T04:54:15;13.17;;;9.07;;
6255;SDS011;3161;48.794;9.784;2022-12-07T04:56:44;12.40;;;8.57;;
6255;SDS011;3161;48.794;9.784;2022-12-07T04:59:12;12.63;;;9.63;;
6255;SDS011;3161;48.794;9.784;2022-12-07T05:01:41;14.30;;;9.17;;
6255;SDS011;3161;48.794;9.784;2022-12-07T05:04:09;10.80;;;8.40;;
6255;SDS011;3161;48.794;9.784;2022-12-07T05:06:36;15.17;;;9.43;;
6255;SDS011;3161;48.794;9.784;2022-12-07T05:09:04;15.37;;;9.57;;
6255;SDS011;3161;48.794;9.784;2022-12-07T05:11:32;16.40;;;10.30;;
6255;SDS011;3161;48.794;9.784;2022-12-07T05:14:10;14.07;;;9.90;;
6255;SDS011;3161;48.794;9.784;2022-12-07T05:16:45;15.77;;;10.40;;
6255;SDS011;3161;48.794;9.784;2022-12-07T05:19:15;11.57;;;8.87;;
6255;SDS011;3161;48.794;9.784;2022-12-07T05:21:43;16.50;;;8.83;;
6255;SDS011;3161;48.794;9.784;2022-12-07T05:24:11;12.93;;;8.77;;
6255;SDS011;3161;48.794;9.784;2022-12-07T05:26:41;14.20;;;9.57;;
6255;SDS011;3161;48.794;9.784;2022-12-07T05:29:12;14.37;;;9.87;;
6255;SDS011;3161;48.794;9.784;2022-12-07T05:31:42;11.27;;;8.27;;
6255;SDS011;3161;48.794;9.784;2022-12-07T05:34:10;13.27;;;9.50;;
6255;SDS011;3161;48.794;9.784;2022-12-07T05:36:38;11.10;;;8.13;;
6255;SDS011;3161;48.794;9.784;2022-12-07T05:39:06;13.83;;;8.57;;
6255;SDS011;3161;48.794;9.784;2022-12-07T05:41:34;11.20;;;8.60;;
6255;SDS011;3161;48.794;9.784;2022-12-07T05:44:19;14.77;;;8.63;;
6255;SDS011;3161;48.794;9.784;2022-12-07T05:46:47;13.50;;;7.90;;
6255;SDS011;3161;48.794;9.784;2022-12-07T05:49:14;13.23;;;8.47;;
6255;SDS011;3161;48.794;9.784;2022-12-07T05:51:42;13.43;;;8.57;;
6255;SDS011;3161;48.794;9.784;2022-12-07T05:54:09;15.27;;;9.70;;
6255;SDS011;3161;48.794;9.784;2022-12-07T05:56:37;14.17;;;8.67;;
6255;SDS011;3161;48.794;9.784;2022-12-07T05:59:04;11.90;;;8.17;;
6255;SDS011;3161;48.794;9.784;2022-12-07T06:01:53;13.43;;;8.60;;
6255;SDS011;3161;48.794;9.784;2022-12-07T06:04:23;13.80;;;9.10;;
6255;SDS011;3161;48.794;9.784;2022-12-07T06:06:52;12.00;;;8.90;;
6255;SDS011;3161;48.794;9.784;2022-12-07T06:09:20;13.10;;;8.80;;
6255;SDS011;3161;48.794;9.784;2022-12-07T06:11:49;15.40;;;8.87;;
6255;SDS011;3161;48.794;9.784;2022-12-07T06:14:36;14.20;;;9.23;;
6255;SDS011;3161;48.794;9.784;2022-12-07T06:17:04;19.63;;;12.90;;
6255;SDS011;3161;48.794;9.784;2022-12-07T06:19:32;28.77;;;17.33;;
6255;SDS011;3161;48.794;9.784;2022-12-07T06:21:59;18.13;;;11.67;;
6255;SDS011;3161;48.794;9.784;2022-12-07T06:24:28;23.50;;;14.40;;
6255;SDS011;3161;48.794;9.784;2022-12-07T06:26:56;16.00;;;11.20;;
6255;SDS011;3161;48.794;9.784;2022-12-07T06:29:24;18.23;;;11.00;;
6255;SDS011;3161;48.794;9.784;2022-12-07T06:31:52;12.47;;;9.37;;
6255;SDS011;3161;48.794;9.784;2022-12-07T06:34:21;16.00;;;10.60;;
6255;SDS011;3161;48.794;9.784;2022-12-07T06:36:49;12.33;;;8.90;;
6255;SDS011;3161;48.794;9.784;2022-12-07T06:39:20;13.23;;;9.00;;
6255;SDS011;3161;48.794;9.784;2022-12-07T06:41:48;13.57;;;9.60;;
6255;SDS011;3161;48.794;9.784;2022-12-07T06:44:18;18.17;;;11.87;;
6255;SDS011;3161;48.794;9.784;2022-12-07T06:46:47;15.87;;;10.23;;
6255;SDS011;3161;48.794;9.784;2022-12-07T06:49:15;13.57;;;9.00;;
6255;SDS011;3161;48.794;9.784;2022-12-07T06:51:43;13.43;;;9.20;;
6255;SDS011;3161;48.794;9.784;2022-12-07T06:54:11;13.07;;;8.40;;
6255;SDS011;3161;48.794;9.784;2022-12-07T06:56:41;13.63;;;9.93;;
6255;SDS011;3161;48.794;9.784;2022-12-07T06:59:09;13.90;;;9.30;;
6255;SDS011;3161;48.794;9.784;2022-12-07T07:01:37;11.20;;;8.50;;
6255;SDS011;3161;48.794;9.784;2022-12-07T07:04:05;20.87;;;9.07;;
6255;SDS011;3161;48.794;9.784;2022-12-07T07:06:32;12.53;;;8.67;;
6255;SDS011;3161;48.794;9.784;2022-12-07T07:09:01;11.10;;;7.67;;
6255;SDS011;3161;48.794;9.784;2022-12-07T07:11:29;11.67;;;8.50;;
6255;SDS011;3161;48.794;9.784;2022-12-07T07:13:56;12.50;;;8.00;;
6255;SDS011;3161;48.794;9.784;2022-12-07T07:16:25;12.17;;;7.97;;
6255;SDS011;3161;48.794;9.784;2022-12-07T07:18:53;17.30;;;7.50;;
6255;SDS011;3161;48.794;9.784;2022-12-07T07:21:20;11.73;;;7.93;;
6255;SDS011;3161;48.794;9.784;2022-12-07T07:23:48;11.57;;;8.30;;
6255;SDS011;3161;48.794;9.784;2022-12-07T07:26:16;12.07;;;8.13;;
6255;SDS011;3161;48.794;9.784;2022-12-07T07:28:43;13.60;;;9.10;;
6255;SDS011;3161;48.794;9.784;2022-12-07T07:31:11;13.37;;;8.73;;
6255;SDS011;3161;48.794;9.784;2022-12-07T07:33:38;12.60;;;8.97;;
6255;SDS011;3161;48.794;9.784;2022-12-07T07:36:06;14.93;;;9.30;;
6255;SDS011;3161;48.794;9.784;2022-12-07T07:38:34;14.80;;;9.57;;
6255;SDS011;3161;48.794;9.784;2022-12-07T07:41:01;14.33;;;9.27;;
6255;SDS011;3161;48.794;9.784;2022-12-07T07:43:29;15.33;;;9.60;;
6255;SDS011;3161;48.794;9.784;2022-12-07T07:45:56;32.10;;;9.80;;
6255;SDS011;3161;48.794;9.784;2022-12-07T07:48:24;13.30;;;9.40;;
6255;SDS011;3161;48.794;9.784;2022-12-07T07:50:52;16.27;;;9.77;;
6255;SDS011;3161;48.794;9.784;2022-12-07T07:53:19;15.17;;;8.33;;
6255;SDS011;3161;48.794;9.784;2022-12-07T07:55:53;13.67;;;9.33;;
6255;SDS011;3161;48.794;9.784;2022-12-07T07:58:21;10.30;;;8.07;;
6255;SDS011;3161;48.794;9.784;2022-12-07T08:00:48;16.70;;;8.47;;
6255;SDS011;3161;48.794;9.784;2022-12-07T08:03:16;12.63;;;8.30;;
6255;SDS011;3161;48.794;9.784;2022-12-07T08:05:44;12.20;;;8.07;;
6255;SDS011;3161;48.794;9.784;2022-12-07T08:08:11;11.57;;;8.17;;
6255;SDS011;3161;48.794;9.784;2022-12-07T08:10:39;13.97;;;8.80;;
6255;SDS011;3161;48.794;9.784;2022-12-07T08:13:06;13.93;;;8.77;;
6255;SDS011;3161;48.794;9.784;2022-12-07T08:15:37;11.63;;;7.90;;
6255;SDS011;3161;48.794;9.784;2022-12-07T08:18:05;11.70;;;8.03;;
6255;SDS011;3161;48.794;9.784;2022-12-07T08:20:34;11.87;;;8.40;;
6255;SDS011;3161;48.794;9.784;2022-12-07T08:23:02;13.13;;;8.97;;
6255;SDS011;3161;48.794;9.784;2022-12-07T08:25:31;15.57;;;10.80;;
6255;SDS011;3161;48.794;9.784;2022-12-07T08:28:00;16.90;;;10.80;;
6255;SDS011;3161;48.794;9.784;2022-12-07T08:30:28;31.57;;;14.77;;
6255;SDS011;3161;48.794;9.784;2022-12-07T08:32:56;24.93;;;12.37;;
6255;SDS011;3161;48.794;9.784;2022-12-07T08:35:24;22.80;;;11.60;;
6255;SDS011;3161;48.794;9.784;2022-12-07T08:37:52;30.50;;;11.17;;
6255;SDS011;3161;48.794;9.784;2022-12-07T08:40:20;43.27;;;17.47;;
6255;SDS011;3161;48.794;9.784;2022-12-07T08:42:50;29.67;;;12.90;;
6255;SDS011;3161;48.794;9.784;2022-12-07T08:45:18;45.90;;;18.30;;
6255;SDS011;3161;48.794;9.784;2022-12-07T08:47:50;27.27;;;12.43;;
6255;SDS011;3161;48.794;9.784;2022-12-07T08:50:23;49.10;;;18.37;;
6255;SDS011;3161;48.794;9.784;2022-12-07T08:52:52;27.30;;;12.23;;
6255;SDS011;3161;48.794;9.784;2022-12-07T08:55:22;33.13;;;14.47;;
6255;SDS011;3161;48.794;9.784;2022-12-07T08:57:51;42.47;;;18.90;;
6255;SDS011;3161;48.794;9.784;2022-12-07T09:00:19;25.33;;;12.17;;
6255;SDS011;3161;48.794;9.784;2022-12-07T09:02:47;26.73;;;11.83;;
6255;SDS011;3161;48.794;9.784;2022-12-07T09:05:14;28.37;;;13.50;;
6255;SDS011;3161;48.794;9.784;2022-12-07T09:07:46;40.10;;;17.40;;
6255;SDS011;3161;48.794;9.784;2022-12-07T09:10:16;29.37;;;14.60;;
6255;SDS011;3161;48.794;9.784;2022-12-07T09:12:44;23.97;;;11.77;;
6255;SDS011;3161;48.794;9.784;2022-12-07T09:15:11;21.20;;;11.27;;
6255;SDS011;3161;48.794;9.784;2022-12-07T09:17:39;29.93;;;13.10;;
6255;SDS011;3161;48.794;9.784;2022-12-07T09:20:07;13.53;;;9.40;;
6255;SDS011;3161;48.794;9.784;2022-12-07T09:22:35;9.30;;;6.63;;
6255;SDS011;3161;48.794;9.784;2022-12-07T09:25:03;10.47;;;7.60;;
6255;SDS011;3161;48.794;9.784;2022-12-07T09:27:31;10.23;;;7.27;;
6255;SDS011;3161;48.794;9.784;2022-12-07T09:29:58;13.30;;;9.30;;
6255;SDS011;3161;48.794;9.784;2022-12-07T09:32:26;16.17;;;10.33;;
6255;SDS011;3161;48.794;9.784;2022-12-07T09:34:53;16.70;;;11.77;;
6255;SDS011;3161;48.794;9.784;2022-12-07T09:37:21;16.43;;;9.00;;
6255;SDS011;3161;48.794;9.784;2022-12-07T09:39:49;12.17;;;7.90;;
6255;SDS011;3161;48.794;9.784;2022-12-07T09:42:27;36.00;;;32.37;;
6255;SDS011;3161;48.794;9.784;2022-12-07T09:44:56;11.77;;;10.00;;
6255;SDS011;3161;48.794;9.784;2022-12-07T09:47:25;16.83;;;12.23;;
6255;SDS011;3161;48.794;9.784;2022-12-07T09:49:54;10.23;;;7.03;;
6255;SDS011;3161;48.794;9.784;2022-12-07T09:52:27;15.83;;;8.93;;
6255;SDS011;3161;48.794;9.784;2022-12-07T09:54:55;14.07;;;9.83;;
6255;SDS011;3161;48.794;9.784;2022-12-07T09:57:32;10.37;;;7.10;;
6255;SDS011;3161;48.794;9.784;2022-12-07T09:59:59;9.60;;;6.53;;
6255;SDS011;3161;48.794;9.784;2022-12-07T10:02:40;7.83;;;5.97;;
6255;SDS011;3161;48.794;9.784;2022-12-07T10:05:12;8.67;;;6.43;;
6255;SDS011;3161;48.794;9.784;2022-12-07T10:07:41;8.10;;;5.87;;
6255;SDS011;3161;48.794;9.784;2022-12-07T10:10:16;7.83;;;6.10;;
6255;SDS011;3161;48.794;9.784;2022-12-07T10:12:55;6.87;;;5.70;;
6255;SDS011;3161;48.794;9.784;2022-12-07T10:15:44;7.33;;;5.53;;
6255;SDS011;3161;48.794;9.784;2022-12-07T10:18:17;9.70;;;6.37;;
6255;SDS011;3161;48.794;9.784;2022-12-07T10:20:47;12.87;;;6.40;;
6255;SDS011;3161;48.794;9.784;2022-12-07T10:23:16;6.93;;;5.60;;
6255;SDS011;3161;48.794;9.784;2022-12-07T10:25:45;9.13;;;5.97;;
6255;SDS011;3161;48.794;9.784;2022-12-07T10:28:15;9.43;;;6.97;;
6255;SDS011;3161;48.794;9.784;2022-12-07T10:33:36;7.13;;;6.00;;
6255;SDS011;3161;48.794;9.784;2022-12-07T10:36:15;9.90;;;5.47;;
6255;SDS011;3161;48.794;9.784;2022-12-07T10:38:50;9.03;;;5.53;;
6255;SDS011;3161;48.794;9.784;2022-12-07T10:41:19;9.97;;;4.90;;
6255;SDS011;3161;48.794;9.784;2022-12-07T10:43:47;12.43;;;5.27;;
6255;SDS011;3161;48.794;9.784;2022-12-07T10:49:21;7.63;;;5.23;;
6255;SDS011;3161;48.794;9.784;2022-12-07T11:00:22;7.93;;;5.30;;
6255;SDS011;3161;48.794;9.784;2022-12-07T11:05:45;7.40;;;5.33;;
6255;SDS011;3161;48.794;9.784;2022-12-07T11:10:31;9.63;;;4.97;;
6255;SDS011;3161;48.794;9.784;2022-12-07T11:13:15;5.37;;;4.47;;
6255;SDS011;3161;48.794;9.784;2022-12-07T11:21:21;7.77;;;4.33;;
6255;SDS011;3161;48.794;9.784;2022-12-07T11:23:56;5.63;;;4.17;;
6255;SDS011;3161;48.794;9.784;2022-12-07T11:26:43;6.23;;;4.70;;
6255;SDS011;3161;48.794;9.784;2022-12-07T11:30:08;7.00;;;5.10;;
6255;SDS011;3161;48.794;9.784;2022-12-07T11:32:19;6.00;;;4.33;;
6255;SDS011;3161;48.794;9.784;2022-12-07T11:37:59;7.30;;;4.70;;
6255;SDS011;3161;48.794;9.784;2022-12-07T11:40:40;7.20;;;4.93;;
6255;SDS011;3161;48.794;9.784;2022-12-07T11:45:56;6.33;;;4.53;;
6255;SDS011;3161;48.794;9.784;2022-12-07T11:48:33;5.73;;;4.27;;
6255;SDS011;3161;48.794;9.784;2022-12-07T11:51:12;5.67;;;4.10;;
6255;SDS011;3161;48.794;9.784;2022-12-07T11:53:43;5.83;;;4.57;;
6255;SDS011;3161;48.794;9.784;2022-12-07T11:56:16;7.97;;;4.20;;
6255;SDS011;3161;48.794;9.784;2022-12-07T12:03:53;5.73;;;4.33;;
6255;SDS011;3161;48.794;9.784;2022-12-07T12:06:42;6.83;;;4.50;;
6255;SDS011;3161;48.794;9.784;2022-12-07T12:09:28;8.83;;;5.03;;
6255;SDS011;3161;48.794;9.784;2022-12-07T12:20:49;5.07;;;4.50;;
6255;SDS011;3161;48.794;9.784;2022-12-07T12:23:22;5.17;;;4.57;;
6255;SDS011;3161;48.794;9.784;2022-12-07T12:25:58;6.43;;;4.27;;
6255;SDS011;3161;48.794;9.784;2022-12-07T12:33:43;6.07;;;4.83;;
6255;SDS011;3161;48.794;9.784;2022-12-07T12:46:53;5.87;;;4.43;;
6255;SDS011;3161;48.794;9.784;2022-12-07T12:54:58;10.13;;;5.67;;
6255;SDS011;3161;48.794;9.784;2022-12-07T12:57:37;7.93;;;5.70;;
6255;SDS011;3161;48.794;9.784;2022-12-07T13:00:18;8.17;;;5.23;;
6255;SDS011;3161;48.794;9.784;2022-12-07T13:02:54;7.43;;;4.97;;
6255;SDS011;3161;48.794;9.784;2022-12-07T13:05:30;8.60;;;4.63;;
6255;SDS011;3161;48.794;9.784;2022-12-07T13:07:56;10.37;;;5.73;;
6255;SDS011;3161;48.794;9.784;2022-12-07T13:18:38;7.57;;;5.17;;
6255;SDS011;3161;48.794;9.784;2022-12-07T13:23:52;7.67;;;4.67;;
6255;SDS011;3161;48.794;9.784;2022-12-07T13:26:14;8.40;;;4.83;;
6255;SDS011;3161;48.794;9.784;2022-12-07T13:28:47;7.20;;;5.40;;
6255;SDS011;3161;48.794;9.784;2022-12-07T13:37:04;8.53;;;4.67;;
6255;SDS011;3161;48.794;9.784;2022-12-07T13:39:48;6.47;;;4.27;;
6255;SDS011;3161;48.794;9.784;2022-12-07T13:45:13;6.53;;;4.33;;
6255;SDS011;3161;48.794;9.784;2022-12-07T13:47:48;4.77;;;3.67;;
6255;SDS011;3161;48.794;9.784;2022-12-07T13:50:25;5.80;;;3.80;;
6255;SDS011;3161;48.794;9.784;2022-12-07T13:52:55;6.67;;;4.90;;
6255;SDS011;3161;48.794;9.784;2022-12-07T13:55:25;7.13;;;5.10;;
6255;SDS011;3161;48.794;9.784;2022-12-07T13:57:53;7.10;;;4.80;;
6255;SDS011;3161;48.794;9.784;2022-12-07T14:00:26;3.93;;;3.53;;
6255;SDS011;3161;48.794;9.784;2022-12-07T14:02:56;5.20;;;3.70;;
6255;SDS011;3161;48.794;9.784;2022-12-07T14:05:26;7.37;;;5.07;;
6255;SDS011;3161;48.794;9.784;2022-12-07T14:08:02;9.13;;;3.93;;
6255;SDS011;3161;48.794;9.784;2022-12-07T14:10:32;6.53;;;4.27;;
6255;SDS011;3161;48.794;9.784;2022-12-07T14:13:02;4.43;;;3.40;;
6255;SDS011;3161;48.794;9.784;2022-12-07T14:15:33;4.97;;;4.07;;
6255;SDS011;3161;48.794;9.784;2022-12-07T14:18:01;10.53;;;4.07;;
6255;SDS011;3161;48.794;9.784;2022-12-07T14:20:31;5.20;;;4.23;;
6255;SDS011;3161;48.794;9.784;2022-12-07T14:23:00;15.10;;;8.83;;
6255;SDS011;3161;48.794;9.784;2022-12-07T14:25:32;10.13;;;6.77;;
6255;SDS011;3161;48.794;9.784;2022-12-07T14:27:59;15.97;;;10.13;;
6255;SDS011;3161;48.794;9.784;2022-12-07T14:30:29;12.93;;;9.57;;
6255;SDS011;3161;48.794;9.784;2022-12-07T14:33:00;13.97;;;10.13;;
6255;SDS011;3161;48.794;9.784;2022-12-07T14:35:30;9.03;;;6.13;;
6255;SDS011;3161;48.794;9.784;2022-12-07T14:37:58;11.30;;;8.27;;
6255;SDS011;3161;48.794;9.784;2022-12-07T14:40:27;7.97;;;6.20;;
6255;SDS011;3161;48.794;9.784;2022-12-07T14:42:57;7.17;;;5.30;;
6255;SDS011;3161;48.794;9.784;2022-12-07T14:45:29;12.10;;;7.17;;
6255;SDS011;3161;48.794;9.784;2022-12-07T14:47:57;6.30;;;4.43;;
6255;SDS011;3161;48.794;9.784;2022-12-07T14:50:25;6.00;;;5.23;;
6255;SDS011;3161;48.794;9.784;2022-12-07T14:52:59;6.67;;;4.67;;
6255;SDS011;3161;48.794;9.784;2022-12-07T14:55:24;7.87;;;5.13;;
6255;SDS011;3161;48.794;9.784;2022-12-07T14:57:54;6.67;;;4.60;;
6255;SDS011;3161;48.794;9.784;2022-12-07T15:00:23;9.90;;;5.60;;
6255;SDS011;3161;48.794;9.784;2022-12-07T15:02:52;7.57;;;5.23;;
6255;SDS011;3161;48.794;9.784;2022-12-07T15:05:20;8.00;;;5.10;;
6255;SDS011;3161;48.794;9.784;2022-12-07T15:07:48;7.83;;;5.10;;
6255;SDS011;3161;48.794;9.784;2022-12-07T15:10:20;7.43;;;5.00;;
6255;SDS011;3161;48.794;9.784;2022-12-07T15:12:58;5.83;;;4.60;;
6255;SDS011;3161;48.794;9.784;2022-12-07T15:15:45;7.37;;;5.30;;
6255;SDS011;3161;48.794;9.784;2022-12-07T15:18:14;7.60;;;5.33;;
6255;SDS011;3161;48.794;9.784;2022-12-07T15:20:42;6.60;;;5.17;;
6255;SDS011;3161;48.794;9.784;2022-12-07T15:23:11;7.47;;;5.43;;
6255;SDS011;3161;48.794;9.784;2022-12-07T15:25:42;7.10;;;4.83;;
6255;SDS011;3161;48.794;9.784;2022-12-07T15:28:11;6.33;;;5.20;;
6255;SDS011;3161;48.794;9.784;2022-12-07T15:30:40;6.50;;;5.33;;
6255;SDS011;3161;48.794;9.784;2022-12-07T15:33:09;8.20;;;5.93;;
6255;SDS011;3161;48.794;9.784;2022-12-07T15:35:41;8.00;;;5.67;;
6255;SDS011;3161;48.794;9.784;2022-12-07T15:38:10;14.23;;;5.37;;
6255;SDS011;3161;48.794;9.784;2022-12-07T15:40:38;8.10;;;5.80;;
6255;SDS011;3161;48.794;9.784;2022-12-07T15:43:07;11.23;;;6.40;;
6255;SDS011;3161;48.794;9.784;2022-12-07T15:45:37;12.90;;;7.43;;
6255;SDS011;3161;48.794;9.784;2022-12-07T15:48:05;12.27;;;6.93;;
6255;SDS011;3161;48.794;9.784;2022-12-07T15:50:32;9.47;;;6.63;;
6255;SDS011;3161;48.794;9.784;2022-12-07T15:53:00;9.83;;;6.10;;
6255;SDS011;3161;48.794;9.784;2022-12-07T15:55:27;10.87;;;6.87;;
6255;SDS011;3161;48.794;9.784;2022-12-07T15:57:55;8.93;;;6.20;;
6255;SDS011;3161;48.794;9.784;2022-12-07T16:00:22;9.63;;;6.00;;
6255;SDS011;3161;48.794;9.784;2022-12-07T16:02:50;15.23;;;6.27;;
6255;SDS011;3161;48.794;9.784;2022-12-07T16:05:17;7.30;;;5.80;;
6255;SDS011;3161;48.794;9.784;2022-12-07T16:07:45;15.13;;;6.27;;
6255;SDS011;3161;48.794;9.784;2022-12-07T16:10:13;13.77;;;6.63;;
6255;SDS011;3161;48.794;9.784;2022-12-07T16:12:40;15.87;;;7.90;;
6255;SDS011;3161;48.794;9.784;2022-12-07T16:15:08;9.93;;;6.93;;
6255;SDS011;3161;48.794;9.784;2022-12-07T16:17:36;13.20;;;6.03;;
6255;SDS011;3161;48.794;9.784;2022-12-07T16:20:04;9.57;;;6.33;;
6255;SDS011;3161;48.794;9.784;2022-12-07T16:22:33;17.60;;;6.53;;
6255;SDS011;3161;48.794;9.784;2022-12-07T16:25:01;14.47;;;8.00;;
6255;SDS011;3161;48.794;9.784;2022-12-07T16:27:29;11.50;;;7.87;;
6255;SDS011;3161;48.794;9.784;2022-12-07T16:29:56;13.60;;;8.30;;
6255;SDS011;3161;48.794;9.784;2022-12-07T16:32:24;12.40;;;8.07;;
6255;SDS011;3161;48.794;9.784;2022-12-07T16:34:52;11.90;;;8.13;;
6255;SDS011;3161;48.794;9.784;2022-12-07T16:37:19;9.90;;;7.23;;
6255;SDS011;3161;48.794;9.784;2022-12-07T16:39:47;11.43;;;7.70;;
6255;SDS011;3161;48.794;9.784;2022-12-07T16:42:14;10.03;;;6.77;;
6255;SDS011;3161;48.794;9.784;2022-12-07T16:44:42;13.43;;;8.17;;
6255;SDS011;3161;48.794;9.784;2022-12-07T16:47:09;11.43;;;7.10;;
6255;SDS011;3161;48.794;9.784;2022-12-07T16:49:37;11.60;;;7.50;;
6255;SDS011;3161;48.794;9.784;2022-12-07T16:52:04;8.80;;;6.37;;
6255;SDS011;3161;48.794;9.784;2022-12-07T16:54:32;10.90;;;7.60;;
6255;SDS011;3161;48.794;9.784;2022-12-07T16:57:00;15.00;;;10.20;;
6255;SDS011;3161;48.794;9.784;2022-12-07T16:59:27;11.83;;;7.07;;
6255;SDS011;3161;48.794;9.784;2022-12-07T17:01:55;8.17;;;6.40;;
6255;SDS011;3161;48.794;9.784;2022-12-07T17:04:22;8.33;;;6.27;;
6255;SDS011;3161;48.794;9.784;2022-12-07T17:06:50;13.00;;;7.03;;
6255;SDS011;3161;48.794;9.784;2022-12-07T17:09:17;9.40;;;6.43;;
6255;SDS011;3161;48.794;9.784;2022-12-07T17:11:45;7.90;;;5.77;;
6255;SDS011;3161;48.794;9.784;2022-12-07T17:14:13;9.83;;;7.07;;
6255;SDS011;3161;48.794;9.784;2022-12-07T17:16:58;12.03;;;7.13;;
6255;SDS011;3161;48.794;9.784;2022-12-07T17:19:26;8.77;;;6.57;;
6255;SDS011;3161;48.794;9.784;2022-12-07T17:21:53;11.70;;;7.67;;
6255;SDS011;3161;48.794;9.784;2022-12-07T17:24:21;16.93;;;8.63;;
6255;SDS011;3161;48.794;9.784;2022-12-07T17:26:48;14.63;;;9.70;;